Time;durP1;ratioP1;P1;durP2;ratioP2;P2;SDS_P1;SDS_P2;PMS_P1;PMS_P2;Temp;Humidity;BMP_temperature;BMP_pressure;BME280_temperature;BME280_humidity;BME280_pressure;Samples;Min_cycle;Max_cycle;Signal;HPM_P1;HPM_P2
2023/01/04 00:01:51;;;;;;;6.22;4.15;;;5.30;99.90;;;;;;4946560;29;20138;-79
2023/01/04 00:04:17;;;;;;;8.30;4.45;;;5.30;99.90;;;;;;4949746;29;20111;-78
2023/01/04 00:06:44;;;;;;;11.10;4.88;;;5.30;99.90;;;;;;4946002;29;20058;-80
2023/01/04 00:09:11;;;;;;;10.38;6.47;;;5.20;99.90;;;;;;4942765;29;20139;-79
2023/01/04 00:11:37;;;;;;;12.02;7.63;;;5.10;99.90;;;;;;4941937;29;20059;-80
2023/01/04 00:14:04;;;;;;;11.23;7.88;;;5.00;99.90;;;;;;4954653;29;20139;-79
2023/01/04 00:16:31;;;;;;;9.23;6.88;;;4.90;99.90;;;;;;4953116;29;20079;-78
2023/01/04 00:18:58;;;;;;;11.20;6.28;;;4.90;99.90;;;;;;4959686;29;20059;-79
2023/01/04 00:21:27;;;;;;;7.80;6.15;;;4.90;99.90;;;;;;4951657;29;20047;-79
2023/01/04 00:23:57;;;;;;;10.15;5.95;;;4.90;99.90;;;;;;4953021;28;20043;-79
2023/01/04 00:26:30;;;;;;;11.43;5.93;;;4.90;99.90;;;;;;4955486;28;20052;-79
2023/01/04 00:29:02;;;;;;;10.55;7.13;;;4.90;99.90;;;;;;4948407;29;20102;-78
2023/01/04 00:31:30;;;;;;;11.25;7.45;;;4.80;99.90;;;;;;4944226;28;20051;-79
2023/01/04 00:33:59;;;;;;;9.25;6.18;;;4.80;99.90;;;;;;4943279;29;20480;-78
2023/01/04 00:36:27;;;;;;;8.70;6.28;;;4.80;99.90;;;;;;4940644;29;20112;-79
2023/01/04 00:39:06;;;;;;;9.90;7.00;;;4.70;99.90;;;;;;4942622;28;20432;-79
2023/01/04 00:41:48;;;;;;;8.32;6.32;;;4.70;99.90;;;;;;4945616;29;20106;-79
2023/01/04 00:44:34;;;;;;;8.77;5.97;;;4.80;99.90;;;;;;4941315;29;20075;-78
2023/01/04 00:47:02;;;;;;;11.55;5.38;;;4.80;99.90;;;;;;4948078;29;20080;-79
2023/01/04 00:49:30;;;;;;;5.75;4.13;;;4.80;99.90;;;;;;4948020;28;20525;-78
2023/01/04 00:51:56;;;;;;;7.47;4.90;;;4.80;99.90;;;;;;4946666;29;20048;-78
2023/01/04 00:54:24;;;;;;;6.00;4.32;;;4.90;99.90;;;;;;4944966;29;20102;-79
2023/01/04 00:56:51;;;;;;;6.25;4.45;;;4.90;99.90;;;;;;4944076;28;20086;-79
2023/01/04 00:59:19;;;;;;;6.60;3.95;;;4.90;99.90;;;;;;4953549;29;20501;-79
2023/01/04 01:01:47;;;;;;;7.13;3.80;;;4.90;99.90;;;;;;4953791;29;20453;-79
2023/01/04 01:04:16;;;;;;;4.80;3.50;;;4.90;99.90;;;;;;4952658;28;20489;-78
2023/01/04 01:06:43;;;;;;;8.30;3.70;;;5.00;99.90;;;;;;4944636;29;20121;-77
2023/01/04 01:09:11;;;;;;;5.32;3.42;;;5.00;99.90;;;;;;4944301;29;20490;-81
2023/01/04 01:11:39;;;;;;;8.00;4.80;;;5.00;99.90;;;;;;4953966;29;20418;-78
2023/01/04 01:14:07;;;;;;;6.13;3.97;;;5.00;99.90;;;;;;4950891;29;20056;-78
2023/01/04 01:16:34;;;;;;;8.02;4.47;;;5.00;99.90;;;;;;4953483;29;20171;-78
2023/01/04 01:19:21;;;;;;;6.07;4.72;;;5.10;99.90;;;;;;4945612;29;20110;-78
2023/01/04 01:21:47;;;;;;;6.07;4.10;;;5.00;99.90;;;;;;4953419;29;20119;-78
2023/01/04 01:24:17;;;;;;;5.13;3.85;;;5.00;99.90;;;;;;4951067;29;20131;-77
2023/01/04 01:26:44;;;;;;;5.30;3.77;;;5.00;99.90;;;;;;4942619;29;20059;-78
2023/01/04 01:29:11;;;;;;;4.30;2.67;;;5.00;99.90;;;;;;4937053;29;20732;-78
2023/01/04 01:31:38;;;;;;;5.88;2.92;;;5.10;99.90;;;;;;4937213;29;20083;-79
2023/01/04 01:34:05;;;;;;;5.95;3.72;;;5.10;99.90;;;;;;4937036;29;20051;-79
2023/01/04 01:36:32;;;;;;;5.85;4.03;;;5.10;99.90;;;;;;4938626;29;20118;-79
2023/01/04 01:38:59;;;;;;;4.32;2.47;;;5.20;99.90;;;;;;4948876;28;20052;-79
2023/01/04 01:41:29;;;;;;;4.28;2.65;;;5.20;99.90;;;;;;4953588;28;20078;-78
2023/01/04 01:43:57;;;;;;;;;;;5.30;99.90;;;;;;4952231;28;20052;-79
2023/01/04 01:46:43;;;;;;;7.30;3.75;;;5.30;99.90;;;;;;4948799;29;19922;-79
2023/01/04 01:49:21;;;;;;;4.68;3.10;;;5.20;99.90;;;;;;4953714;29;20056;-78
2023/01/04 01:51:49;;;;;;;5.93;3.78;;;5.30;99.90;;;;;;4952099;29;20138;-78
2023/01/04 01:54:21;;;;;;;7.07;4.40;;;5.20;99.90;;;;;;4939415;29;20098;-78
2023/01/04 01:56:50;;;;;;;5.80;3.88;;;5.20;99.90;;;;;;4947673;29;20589;-79
2023/01/04 01:59:17;;;;;;;4.63;3.30;;;5.20;99.90;;;;;;4939326;29;20047;-79
2023/01/04 02:01:44;;;;;;;5.75;3.47;;;5.20;99.90;;;;;;4955617;28;20180;-79
2023/01/04 02:04:12;;;;;;;4.70;2.83;;;5.20;99.90;;;;;;4943806;29;20079;-79
2023/01/04 02:06:44;;;;;;;5.53;3.35;;;5.30;99.90;;;;;;4950057;29;20074;-79
2023/01/04 02:09:12;;;;;;;4.97;3.60;;;5.30;99.90;;;;;;4947972;29;20146;-79
2023/01/04 02:11:38;;;;;;;7.78;4.20;;;5.30;99.90;;;;;;4940839;29;20056;-78
2023/01/04 02:14:26;;;;;;;5.82;4.38;;;5.30;99.90;;;;;;4943306;29;20062;-79
2023/01/04 02:17:05;;;;;;;7.57;4.28;;;5.30;99.90;;;;;;4951813;29;20496;-79
2023/01/04 02:19:50;;;;;;;6.05;3.22;;;5.30;99.90;;;;;;4942334;29;20044;-77
2023/01/04 02:22:39;;;;;;;5.15;2.80;;;5.40;99.90;;;;;;4943750;29;20138;-78
2023/01/04 02:25:27;;;;;;;3.50;2.22;;;5.30;99.90;;;;;;4941739;29;20098;-79
2023/01/04 02:28:42;;;;;;;4.05;1.80;;;5.30;99.90;;;;;;4940076;29;20051;-78
2023/01/04 02:31:14;;;;;;;5.13;1.50;;;5.40;99.90;;;;;;4950139;29;20106;-79
2023/01/04 02:33:53;;;;;;;1.83;1.63;;;5.40;99.90;;;;;;4949832;29;20047;-79
2023/01/04 02:36:46;;;;;;;2.22;1.50;;;5.50;99.90;;;;;;4946351;29;20048;-79
2023/01/04 02:39:25;;;;;;;1.65;1.40;;;5.60;99.90;;;;;;4921337;28;22474;-79
2023/01/04 02:41:58;;;;;;;1.38;0.90;;;5.60;99.90;;;;;;4948904;29;20500;-79
2023/01/04 02:44:52;;;;;;;2.50;1.30;;;5.70;99.90;;;;;;4950468;29;20052;-78
2023/01/04 02:50:35;;;;;;;3.35;1.20;;;5.90;99.90;;;;;;4954982;29;20051;-78
2023/01/04 02:53:10;;;;;;;1.55;1.38;;;6.00;99.90;;;;;;4953694;28;20062;-79
2023/01/04 02:55:45;;;;;;;2.53;1.30;;;6.10;99.90;;;;;;4952964;29;20056;-77
2023/01/04 02:58:21;;;;;;;2.33;1.10;;;6.20;99.90;;;;;;4953607;28;20154;-79
2023/01/04 03:07:00;;;;;;;2.38;1.05;;;6.40;99.90;;;;;;4943629;29;20078;-78
2023/01/04 03:09:32;;;;;;;2.22;0.82;;;6.50;99.90;;;;;;4945243;29;20134;-78
2023/01/04 03:14:59;;;;;;;2.58;0.98;;;6.60;99.90;;;;;;4938412;29;20138;-78
2023/01/04 03:17:30;;;;;;;0.90;0.80;;;6.70;99.90;;;;;;4951709;29;20239;-78
2023/01/04 03:19:58;;;;;;;4.10;0.80;;;6.70;99.90;;;;;;4950976;29;20090;-78
2023/01/04 03:36:57;;;;;;;0.70;0.63;;;6.90;99.90;;;;;;4943748;29;20094;-78
2023/01/04 03:49:01;;;;;;;2.10;0.70;;;7.10;99.90;;;;;;4941999;29;20058;-77
2023/01/04 03:51:32;;;;;;;0.63;0.63;;;7.10;99.90;;;;;;4945979;29;20122;-78
2023/01/04 03:54:14;;;;;;;0.68;0.60;;;7.10;99.90;;;;;;4945669;29;20135;-77
2023/01/04 03:56:43;;;;;;;2.22;0.80;;;7.20;99.90;;;;;;4943856;29;20103;-77
2023/01/04 03:59:11;;;;;;;1.57;0.80;;;7.20;99.90;;;;;;4942005;28;20052;-78
2023/01/04 04:01:41;;;;;;;3.83;0.80;;;7.30;99.90;;;;;;4940369;29;20473;-78
2023/01/04 04:09:40;;;;;;;1.35;0.70;;;7.30;99.90;;;;;;4950813;29;20143;-78
2023/01/04 04:12:06;;;;;;;1.95;0.80;;;7.40;99.90;;;;;;4952365;29;20070;-78
2023/01/04 04:14:33;;;;;;;2.00;0.70;;;7.40;99.90;;;;;;4949609;29;20074;-78
2023/01/04 04:17:00;;;;;;;1.75;0.80;;;7.40;99.90;;;;;;4942870;29;20043;-77
2023/01/04 04:19:27;;;;;;;2.45;0.80;;;7.50;99.90;;;;;;4944065;29;20055;-78
2023/01/04 04:21:53;;;;;;;0.60;0.60;;;7.50;99.90;;;;;;4944446;29;20561;-78
2023/01/04 04:24:23;;;;;;;1.65;0.70;;;7.50;99.90;;;;;;4951715;29;20076;-78
2023/01/04 04:26:53;;;;;;;1.98;0.60;;;7.60;99.90;;;;;;4940538;29;20054;-78
2023/01/04 04:29:20;;;;;;;1.75;0.75;;;7.60;99.90;;;;;;4953089;29;20519;-78
2023/01/04 04:31:47;;;;;;;3.47;0.80;;;7.60;99.90;;;;;;4954821;28;20457;-77
2023/01/04 04:34:14;;;;;;;2.67;0.70;;;7.60;99.90;;;;;;4954630;29;20090;-78
2023/01/04 04:36:41;;;;;;;2.25;0.60;;;7.70;99.90;;;;;;4952502;29;20097;-78
2023/01/04 04:39:07;;;;;;;1.05;0.60;;;7.70;99.90;;;;;;4936071;29;20052;-78
2023/01/04 04:41:37;;;;;;;3.38;0.68;;;7.70;99.90;;;;;;4942061;29;20047;-78
2023/01/04 04:44:15;;;;;;;0.98;0.60;;;7.70;99.90;;;;;;4944045;29;20061;-77
2023/01/04 04:46:43;;;;;;;1.30;0.57;;;7.70;99.90;;;;;;4951693;29;20087;-77
2023/01/04 04:49:10;;;;;;;1.85;0.50;;;7.80;99.90;;;;;;4953591;29;20054;-78
2023/01/04 04:51:37;;;;;;;0.75;0.47;;;7.80;99.90;;;;;;4953040;29;20082;-78
2023/01/04 04:54:04;;;;;;;2.22;0.70;;;7.80;99.90;;;;;;4945095;29;20055;-78
2023/01/04 04:56:31;;;;;;;0.80;0.40;;;7.90;99.90;;;;;;4936634;29;20098;-78
2023/01/04 04:58:58;;;;;;;1.70;0.50;;;7.90;99.90;;;;;;4946526;29;20585;-78
2023/01/04 05:01:25;;;;;;;3.08;0.68;;;7.90;99.90;;;;;;4953600;29;20475;-76
2023/01/04 05:03:52;;;;;;;0.75;0.40;;;8.00;99.90;;;;;;4950073;29;20051;-78
2023/01/04 05:06:19;;;;;;;0.47;0.47;;;8.00;99.90;;;;;;4949209;29;20095;-77
2023/01/04 05:08:46;;;;;;;0.50;0.50;;;8.00;99.90;;;;;;4952115;29;20107;-79
2023/01/04 05:11:12;;;;;;;0.93;0.80;;;8.00;99.90;;;;;;4945763;29;20059;-78
2023/01/04 05:13:40;;;;;;;1.17;0.70;;;8.00;99.90;;;;;;4946706;29;20146;-80
2023/01/04 05:16:08;;;;;;;2.72;0.88;;;8.00;99.90;;;;;;4939264;29;20056;-79
2023/01/04 05:18:35;;;;;;;2.10;0.70;;;8.10;99.90;;;;;;4939653;29;20056;-78
2023/01/04 05:21:02;;;;;;;2.50;0.60;;;8.10;99.90;;;;;;4940293;29;20047;-80
2023/01/04 05:23:28;;;;;;;2.42;0.63;;;8.10;99.90;;;;;;4956796;29;20115;-80
2023/01/04 05:25:58;;;;;;;4.03;0.40;;;8.10;99.90;;;;;;4957026;29;20048;-79
2023/01/04 05:28:26;;;;;;;0.70;0.65;;;8.10;99.90;;;;;;4957878;28;20052;-80
2023/01/04 05:30:54;;;;;;;1.40;0.60;;;8.10;99.90;;;;;;4943997;29;20061;-78
2023/01/04 05:33:24;;;;;;;1.25;0.50;;;8.10;99.90;;;;;;4946148;29;20058;-79
2023/01/04 05:35:52;;;;;;;2.30;0.60;;;8.10;99.90;;;;;;4949391;29;20142;-79
2023/01/04 05:38:19;;;;;;;0.50;0.40;;;8.10;99.90;;;;;;4946739;29;20106;-80
2023/01/04 05:40:47;;;;;;;0.47;0.47;;;8.10;99.90;;;;;;4945539;29;20094;-78
2023/01/04 05:43:15;;;;;;;0.32;0.32;;;8.20;99.90;;;;;;4943066;29;20098;-80
2023/01/04 05:45:56;;;;;;;1.35;0.73;;;8.20;99.90;;;;;;4952859;29;20103;-77
2023/01/04 05:48:23;;;;;;;1.05;0.32;;;8.20;99.90;;;;;;4953752;29;20048;-78
2023/01/04 05:50:51;;;;;;;1.70;0.50;;;8.20;99.90;;;;;;4957186;28;20056;-76
2023/01/04 05:53:18;;;;;;;2.42;0.50;;;8.30;99.90;;;;;;4955635;28;20119;-77
2023/01/04 05:55:47;;;;;;;1.48;0.50;;;8.30;99.90;;;;;;4938711;29;20071;-78
2023/01/04 05:58:14;;;;;;;1.15;0.50;;;8.30;99.90;;;;;;4938990;29;20111;-78
2023/01/04 06:00:41;;;;;;;1.35;0.82;;;8.30;99.90;;;;;;4948509;29;20054;-77
2023/01/04 06:03:08;;;;;;;1.50;0.52;;;8.30;99.90;;;;;;4948639;29;20054;-79
2023/01/04 06:05:34;;;;;;;1.70;0.65;;;8.30;99.90;;;;;;4950455;29;20051;-78
2023/01/04 06:08:01;;;;;;;0.40;0.40;;;8.30;99.90;;;;;;4944823;29;20409;-79
2023/01/04 06:10:28;;;;;;;1.30;0.40;;;8.40;99.90;;;;;;4942531;29;20054;-79
2023/01/04 06:12:55;;;;;;;0.90;0.40;;;8.40;99.90;;;;;;4939964;29;20051;-78
2023/01/04 06:15:21;;;;;;;0.55;0.40;;;8.40;99.90;;;;;;4946727;29;20094;-79
2023/01/04 06:17:48;;;;;;;0.93;0.43;;;8.50;99.90;;;;;;4956200;29;20055;-79
2023/01/04 06:20:15;;;;;;;0.70;0.47;;;8.50;99.90;;;;;;4953255;29;20461;-78
2023/01/04 06:22:42;;;;;;;3.25;0.55;;;8.50;99.90;;;;;;4948943;29;20502;-78
2023/01/04 06:25:09;;;;;;;1.33;0.40;;;8.50;99.90;;;;;;4950245;29;20055;-79
2023/01/04 06:27:36;;;;;;;1.50;0.60;;;8.50;99.90;;;;;;4945873;29;20087;-79
2023/01/04 06:30:03;;;;;;;0.98;0.52;;;8.60;99.90;;;;;;4948900;29;20055;-79
2023/01/04 06:32:30;;;;;;;0.60;0.57;;;8.60;99.90;;;;;;4952963;29;20115;-78
2023/01/04 06:34:57;;;;;;;0.80;0.50;;;8.60;99.90;;;;;;4950011;29;20102;-78
2023/01/04 06:37:23;;;;;;;0.50;0.50;;;8.60;99.90;;;;;;4944804;29;20170;-79
2023/01/04 06:39:50;;;;;;;0.70;0.45;;;8.60;99.90;;;;;;4942319;29;20107;-79
2023/01/04 06:45:03;;;;;;;0.70;0.40;;;8.70;99.90;;;;;;4949229;29;20083;-79
2023/01/04 06:47:29;;;;;;;2.65;0.50;;;8.70;99.90;;;;;;4951424;29;20047;-79
2023/01/04 06:49:56;;;;;;;1.15;0.40;;;8.70;99.90;;;;;;4962015;28;20056;-79
2023/01/04 06:52:23;;;;;;;1.00;0.65;;;8.70;99.90;;;;;;4949538;29;20465;-79
2023/01/04 06:54:50;;;;;;;0.80;0.45;;;8.70;99.90;;;;;;4945440;29;20430;-79
2023/01/04 06:57:16;;;;;;;0.43;0.40;;;8.70;99.90;;;;;;4955044;29;20126;-79
2023/01/04 06:59:43;;;;;;;3.00;0.50;;;8.70;99.90;;;;;;4946782;29;20049;-79
2023/01/04 07:02:14;;;;;;;1.20;0.50;;;8.70;99.90;;;;;;4950218;29;20123;-79
2023/01/04 07:04:41;;;;;;;2.53;0.65;;;8.80;99.90;;;;;;4945417;29;20591;-79
2023/01/04 07:07:08;;;;;;;2.70;0.70;;;8.70;99.90;;;;;;4951892;29;20395;-79
2023/01/04 07:09:35;;;;;;;1.27;0.52;;;8.80;99.90;;;;;;4944548;29;20082;-78
2023/01/04 07:12:02;;;;;;;1.77;0.50;;;8.80;99.90;;;;;;4944286;29;20134;-78
2023/01/04 07:14:29;;;;;;;0.60;0.40;;;8.80;99.90;;;;;;4957228;28;20115;-78
2023/01/04 07:16:55;;;;;;;1.63;0.85;;;8.80;99.90;;;;;;4949410;29;20051;-77
2023/01/04 07:19:22;;;;;;;3.20;0.68;;;8.80;99.90;;;;;;4947627;29;20177;-78
2023/01/04 07:21:49;;;;;;;0.65;0.50;;;9.00;99.90;;;;;;4946366;29;20074;-80
2023/01/04 07:24:15;;;;;;;2.38;0.65;;;9.00;99.90;;;;;;4949813;29;20051;-78
2023/01/04 07:26:42;;;;;;;1.95;0.50;;;8.90;99.90;;;;;;4946163;29;20489;-78
2023/01/04 07:29:18;;;;;;;1.75;0.45;;;8.90;99.90;;;;;;4944187;29;20055;-78
2023/01/04 07:31:47;;;;;;;2.63;0.50;;;8.90;99.90;;;;;;4950265;29;20061;-78
2023/01/04 07:34:16;;;;;;;2.22;0.50;;;8.90;99.90;;;;;;4946878;28;20082;-78
2023/01/04 07:36:43;;;;;;;1.08;0.40;;;8.90;99.90;;;;;;4947477;29;20043;-78
2023/01/04 07:39:11;;;;;;;1.13;0.60;;;8.90;99.90;;;;;;4948404;29;20062;-83
2023/01/04 07:41:39;;;;;;;4.63;0.60;;;9.00;99.90;;;;;;4945113;29;20469;-80
2023/01/04 07:44:07;;;;;;;0.82;0.55;;;9.00;99.90;;;;;;4947986;28;20138;-78
2023/01/04 07:46:34;;;;;;;1.00;0.43;;;9.10;99.90;;;;;;4948227;29;20047;-78
2023/01/04 07:49:02;;;;;;;0.93;0.55;;;9.00;99.90;;;;;;4947171;28;20043;-79
2023/01/04 07:51:32;;;;;;;0.55;0.35;;;9.00;99.90;;;;;;4951045;28;20496;-78
2023/01/04 07:53:59;;;;;;;1.35;0.50;;;9.10;99.90;;;;;;4942454;29;20058;-79
2023/01/04 07:56:26;;;;;;;2.70;0.50;;;9.00;99.90;;;;;;4935367;29;20453;-77
2023/01/04 07:58:57;;;;;;;2.28;0.55;;;9.00;99.90;;;;;;4945502;29;20138;-78
2023/01/04 08:01:25;;;;;;;5.75;0.70;;;9.00;99.90;;;;;;4942703;28;20102;-77
2023/01/04 08:03:53;;;;;;;1.05;0.40;;;9.00;99.90;;;;;;4946011;28;20095;-77
2023/01/04 08:06:20;;;;;;;1.80;0.80;;;9.00;99.90;;;;;;4948417;29;20075;-78
2023/01/04 08:08:47;;;;;;;3.17;0.82;;;9.00;99.90;;;;;;4947194;29;20135;-78
2023/01/04 08:11:17;;;;;;;2.55;1.30;;;9.00;99.90;;;;;;4948289;29;20556;-77
2023/01/04 08:13:44;;;;;;;2.63;1.38;;;9.00;99.90;;;;;;4945028;29;20047;-79
2023/01/04 08:16:31;;;;;;;1.42;0.43;;;9.00;99.90;;;;;;4946481;29;20103;-78
2023/01/04 08:19:04;;;;;;;2.60;1.00;;;9.00;99.90;;;;;;4942169;29;20090;-78
2023/01/04 08:21:33;;;;;;;7.22;2.88;;;9.00;99.90;;;;;;4944554;29;20055;-76
2023/01/04 08:24:00;;;;;;;1.10;0.60;;;9.00;99.90;;;;;;4941187;29;20079;-77
2023/01/04 08:26:27;;;;;;;4.85;1.17;;;9.00;99.90;;;;;;4945800;29;20043;-78
2023/01/04 08:28:55;;;;;;;15.43;6.13;;;9.00;99.90;;;;;;4947198;29;20768;-79
2023/01/04 08:31:27;;;;;;;2.03;1.08;;;9.10;99.90;;;;;;4947967;28;20146;-77
2023/01/04 08:33:55;;;;;;;1.42;0.80;;;9.10;99.90;;;;;;4966254;28;20059;-78
2023/01/04 08:36:29;;;;;;;2.17;0.70;;;9.00;99.90;;;;;;4951440;29;20131;-77
2023/01/04 08:38:58;;;;;;;1.95;0.70;;;9.10;99.90;;;;;;4950465;29;20051;-79
2023/01/04 08:41:28;;;;;;;1.38;0.80;;;9.10;99.90;;;;;;4956621;29;20078;-77
2023/01/04 08:44:25;;;;;;;1.92;0.68;;;9.10;99.90;;;;;;4952636;29;20129;-76
2023/01/04 08:46:53;;;;;;;2.03;0.65;;;9.10;99.90;;;;;;4953951;28;20047;-77
2023/01/04 08:49:20;;;;;;;2.50;0.60;;;9.10;99.90;;;;;;4951645;28;20552;-78
2023/01/04 08:51:48;;;;;;;2.50;0.95;;;9.10;99.90;;;;;;4956559;29;20095;-79
2023/01/04 08:54:15;;;;;;;2.25;0.90;;;9.20;99.90;;;;;;4953881;28;20047;-76
2023/01/04 08:56:43;;;;;;;2.22;0.70;;;9.10;99.90;;;;;;4948241;29;20570;-78
2023/01/04 08:59:11;;;;;;;3.13;0.70;;;9.20;99.90;;;;;;4954434;28;20079;-78
2023/01/04 09:01:39;;;;;;;3.28;0.73;;;9.20;99.90;;;;;;4954205;29;20047;-78
2023/01/04 09:04:06;;;;;;;0.60;0.50;;;9.20;99.90;;;;;;4955584;29;20509;-76
2023/01/04 09:06:33;;;;;;;1.67;0.50;;;9.20;99.90;;;;;;4952039;29;20049;-78
2023/01/04 09:09:00;;;;;;;2.10;0.60;;;9.20;99.90;;;;;;4954430;28;20061;-78
2023/01/04 09:11:27;;;;;;;2.22;0.55;;;9.20;99.90;;;;;;4956412;29;20077;-78
2023/01/04 09:13:58;;;;;;;1.63;0.60;;;9.20;99.90;;;;;;4956292;29;20141;-78
2023/01/04 09:16:34;;;;;;;2.72;0.50;;;9.20;99.90;;;;;;4940980;29;20083;-78
2023/01/04 09:19:01;;;;;;;3.20;0.70;;;9.20;99.90;;;;;;4942761;29;20055;-78
2023/01/04 09:21:28;;;;;;;2.42;0.75;;;9.20;99.90;;;;;;4945087;29;20163;-78
2023/01/04 09:23:58;;;;;;;4.53;0.70;;;9.30;99.90;;;;;;4946474;29;20055;-77
2023/01/04 09:26:24;;;;;;;4.70;1.85;;;9.30;99.90;;;;;;4947941;29;20051;-78
2023/01/04 09:28:53;;;;;;;3.20;0.60;;;9.30;99.90;;;;;;4949991;29;20055;-78
2023/01/04 09:31:24;;;;;;;3.33;1.02;;;9.40;99.90;;;;;;4951542;29;20060;-78
2023/01/04 09:33:51;;;;;;;5.65;0.88;;;9.40;99.90;;;;;;4954223;29;20055;-78
2023/01/04 09:36:38;;;;;;;0.85;0.50;;;9.40;99.90;;;;;;4940785;29;20608;-78
2023/01/04 09:39:05;;;;;;;2.88;0.60;;;9.50;99.90;;;;;;4956448;29;20532;-78
2023/01/04 09:41:43;;;;;;;2.40;0.60;;;9.50;99.90;;;;;;4953070;29;20133;-79
2023/01/04 09:44:16;;;;;;;3.28;0.85;;;9.50;99.90;;;;;;4954015;28;20089;-78
2023/01/04 09:46:47;;;;;;;2.10;0.70;;;9.60;99.90;;;;;;4944000;29;20135;-78
2023/01/04 09:49:20;;;;;;;2.22;0.60;;;9.60;99.90;;;;;;4945572;29;20393;-78
2023/01/04 09:52:02;;;;;;;1.95;0.60;;;9.60;99.90;;;;;;4948218;29;20086;-78
2023/01/04 09:54:53;;;;;;;0.50;0.50;;;9.60;99.90;;;;;;4944884;29;20227;-78
2023/01/04 09:57:28;;;;;;;1.70;0.65;;;9.70;99.90;;;;;;4943629;28;20504;-79
2023/01/04 10:00:01;;;;;;;2.95;0.50;;;9.70;99.90;;;;;;4954881;29;20138;-78
2023/01/04 10:02:38;;;;;;;3.05;0.52;;;9.80;99.90;;;;;;4950570;29;20473;-78
2023/01/04 10:05:07;;;;;;;0.93;0.50;;;9.80;99.90;;;;;;4945858;29;20047;-78
2023/01/04 10:07:34;;;;;;;0.60;0.50;;;9.90;99.90;;;;;;4955613;28;20051;-78
2023/01/04 10:10:01;;;;;;;0.70;0.40;;;10.00;99.90;;;;;;4953813;28;20087;-78
2023/01/04 10:12:36;;;;;;;0.82;0.47;;;10.00;99.90;;;;;;4955575;29;20485;-79
2023/01/04 10:15:09;;;;;;;3.78;0.68;;;10.10;99.90;;;;;;4951880;29;20052;-79
2023/01/04 10:18:03;;;;;;;1.35;0.60;;;10.10;99.90;;;;;;4947550;29;20093;-79
2023/01/04 10:21:10;;;;;;;0.68;0.52;;;10.20;99.90;;;;;;4948387;29;20051;-77
2023/01/04 10:24:05;;;;;;;1.10;0.70;;;10.20;99.90;;;;;;4943628;29;20087;-78
2023/01/04 10:26:45;;;;;;;1.15;0.50;;;10.30;99.90;;;;;;4952657;29;20083;-78
2023/01/04 10:29:54;;;;;;;1.35;0.50;;;10.30;99.90;;;;;;4956486;28;20047;-78
2023/01/04 10:32:31;;;;;;;2.03;0.50;;;10.30;99.90;;;;;;4931416;28;20084;-78
2023/01/04 10:34:57;;;;;;;1.20;0.60;;;10.40;99.90;;;;;;4957410;28;20055;-77
2023/01/04 10:37:35;;;;;;;1.13;0.65;;;10.30;99.90;;;;;;4953590;29;20043;-78
2023/01/04 10:40:10;;;;;;;1.42;0.70;;;10.40;99.90;;;;;;4950112;29;20047;-78
2023/01/04 10:42:45;;;;;;;1.77;0.80;;;10.40;99.90;;;;;;4946016;29;20044;-78
2023/01/04 10:45:16;;;;;;;2.15;0.65;;;10.40;99.90;;;;;;4945816;29;20048;-78
2023/01/04 10:47:46;;;;;;;;;;;10.50;99.90;;;;;;4948809;29;20078;-77
2023/01/04 10:50:39;;;;;;;1.40;0.70;;;10.50;99.90;;;;;;4945420;29;19977;-78
2023/01/04 10:53:18;;;;;;;1.75;0.60;;;10.50;99.90;;;;;;4938913;29;20143;-77
2023/01/04 10:55:56;;;;;;;1.95;0.85;;;10.50;99.90;;;;;;4936341;29;20116;-79
2023/01/04 10:58:54;;;;;;;4.53;0.90;;;10.60;99.90;;;;;;4938237;29;20055;-79
2023/01/04 11:01:28;;;;;;;3.35;0.77;;;10.60;99.90;;;;;;4953358;29;20527;-79
2023/01/04 11:04:02;;;;;;;0.95;0.60;;;10.60;99.90;;;;;;4955522;29;20063;-79
2023/01/04 11:06:47;;;;;;;4.65;1.23;;;10.60;99.90;;;;;;4949496;29;20089;-79
2023/01/04 11:09:25;;;;;;;1.58;0.80;;;10.60;99.90;;;;;;4946760;28;20054;-79
2023/01/04 11:11:55;;;;;;;2.55;1.05;;;10.60;99.90;;;;;;4950344;29;20052;-79
2023/01/04 11:14:24;;;;;;;;;;;10.60;99.90;;;;;;4959161;28;20089;-79
2023/01/04 11:16:56;;;;;;;1.38;0.93;;;10.60;99.90;;;;;;4942128;29;20020;-78
2023/01/04 11:19:23;;;;;;;2.08;0.70;;;10.60;99.90;;;;;;4955870;28;20059;-79
2023/01/04 11:21:59;;;;;;;6.95;0.73;;;10.60;99.90;;;;;;4949882;29;20428;-79
2023/01/04 11:24:29;;;;;;;1.73;0.90;;;10.60;99.90;;;;;;4955596;28;20098;-78
2023/01/04 11:27:13;;;;;;;3.45;1.50;;;10.60;99.90;;;;;;4952326;29;20052;-78
2023/01/04 11:29:56;;;;;;;5.40;3.13;;;10.60;99.90;;;;;;4950789;29;20135;-79
2023/01/04 11:32:48;;;;;;;4.50;2.50;;;10.60;99.90;;;;;;4945778;29;20057;-79
2023/01/04 11:35:15;;;;;;;10.90;3.40;;;10.50;99.90;;;;;;4946672;29;20122;-79
2023/01/04 11:37:42;;;;;;;5.72;2.83;;;10.40;99.90;;;;;;4959504;28;20382;-79
2023/01/04 11:40:17;;;;;;;8.95;3.72;;;10.40;99.90;;;;;;4943754;29;20055;-80
2023/01/04 11:43:05;;;;;;;4.75;2.67;;;10.30;99.90;;;;;;4940899;29;20051;-79
2023/01/04 11:45:32;;;;;;;4.43;2.58;;;10.30;99.90;;;;;;4931139;29;20054;-79
2023/01/04 11:47:59;;;;;;;4.45;2.40;;;10.30;99.90;;;;;;4951309;29;20107;-80
2023/01/04 11:50:42;;;;;;;5.80;2.50;;;10.30;99.90;;;;;;4953237;29;20065;-79
2023/01/04 11:53:29;;;;;;;4.75;2.83;;;10.30;99.90;;;;;;4952299;28;20065;-79
2023/01/04 11:56:13;;;;;;;6.95;2.38;;;10.30;99.90;;;;;;4950271;28;20087;-79
2023/01/04 11:58:42;;;;;;;4.75;2.97;;;10.30;99.90;;;;;;4945969;29;20051;-79
2023/01/04 12:01:23;;;;;;;6.32;3.33;;;10.30;99.90;;;;;;4947052;29;20539;-80
2023/01/04 12:03:50;;;;;;;5.30;2.55;;;10.30;99.90;;;;;;4937602;29;20067;-79
2023/01/04 12:06:31;;;;;;;2.40;1.27;;;10.30;99.90;;;;;;4937428;29;20053;-79
2023/01/04 12:08:57;;;;;;;;;;;10.30;99.90;;;;;;4953999;29;20051;-80
2023/01/04 12:11:35;;;;;;;3.05;2.13;;;10.30;99.90;;;;;;4955629;29;19922;-79
2023/01/04 12:14:04;;;;;;;2.95;1.83;;;10.30;99.90;;;;;;4956622;28;20051;-79
2023/01/04 12:16:52;;;;;;;5.78;3.05;;;10.30;99.90;;;;;;4954941;29;20148;-79
2023/01/04 12:19:20;;;;;;;3.10;1.45;;;10.30;99.90;;;;;;4942906;29;20083;-80
2023/01/04 12:21:51;;;;;;;2.95;1.00;;;10.30;99.90;;;;;;4943866;28;20497;-79
2023/01/04 12:24:20;;;;;;;;;;;10.30;99.90;;;;;;4946011;29;20048;-79
2023/01/04 12:26:48;;;;;;;2.05;1.30;;;10.30;99.90;;;;;;4946253;29;19923;-79
2023/01/04 12:29:23;;;;;;;4.40;1.77;;;10.30;99.90;;;;;;4943505;29;20138;-79
2023/01/04 12:32:20;;;;;;;3.85;2.00;;;10.40;99.90;;;;;;4950192;29;20092;-78
2023/01/04 12:34:47;;;;;;;2.30;1.10;;;10.40;99.90;;;;;;4940247;28;20090;-79
2023/01/04 12:37:50;;;;;;;3.95;1.73;;;10.40;99.90;;;;;;4955372;29;20061;-80
2023/01/04 12:40:45;;;;;;;5.28;1.77;;;10.40;99.90;;;;;;4954708;28;20552;-79
2023/01/04 12:43:15;;;;;;;1.67;1.27;;;10.40;99.90;;;;;;4941556;29;20050;-80
2023/01/04 12:45:47;;;;;;;1.85;1.10;;;10.50;99.90;;;;;;4943489;29;20421;-79
2023/01/04 12:51:18;;;;;;;3.22;0.93;;;10.50;99.90;;;;;;4945607;29;20494;-76
2023/01/04 12:54:05;;;;;;;2.90;0.85;;;10.60;99.90;;;;;;4946698;29;20047;-76
2023/01/04 12:57:15;;;;;;;2.65;1.15;;;10.60;99.90;;;;;;4941144;29;20138;-80
2023/01/04 13:00:12;;;;;;;2.22;0.70;;;10.60;99.90;;;;;;4943829;29;20043;-77
2023/01/04 13:02:46;;;;;;;2.35;1.10;;;10.70;99.90;;;;;;4956800;28;20077;-78
2023/01/04 13:05:16;;;;;;;2.03;1.00;;;10.70;99.90;;;;;;4956692;28;20106;-76
2023/01/04 13:08:10;;;;;;;2.78;1.00;;;10.70;99.90;;;;;;4939733;29;20047;-77
2023/01/04 13:10:54;;;;;;;6.25;0.90;;;10.60;99.90;;;;;;4944348;29;20098;-78
2023/01/04 13:13:36;;;;;;;2.45;0.80;;;10.60;99.90;;;;;;4950693;29;20150;-77
2023/01/04 13:16:29;;;;;;;2.63;0.80;;;10.60;99.90;;;;;;4946095;29;20480;-76
2023/01/04 13:19:01;;;;;;;4.55;1.00;;;10.60;99.90;;;;;;4945015;29;20054;-77
2023/01/04 13:21:30;;;;;;;1.15;0.85;;;10.60;99.90;;;;;;4942357;29;20543;-78
2023/01/04 13:24:16;;;;;;;2.38;1.02;;;10.60;99.90;;;;;;4951894;29;20492;-77
2023/01/04 13:26:47;;;;;;;3.70;0.90;;;10.60;99.90;;;;;;4954075;28;20134;-77
2023/01/04 13:29:35;;;;;;;2.85;0.80;;;10.60;99.90;;;;;;4955044;29;20051;-77
2023/01/04 13:32:17;;;;;;;3.70;1.05;;;10.60;99.90;;;;;;4953565;28;20154;-76
2023/01/04 13:34:59;;;;;;;1.92;0.70;;;10.60;99.90;;;;;;4953850;29;20066;-78
2023/01/04 13:37:30;;;;;;;4.43;1.20;;;10.60;99.90;;;;;;4951757;29;20142;-78
2023/01/04 13:40:15;;;;;;;3.40;0.80;;;10.60;99.90;;;;;;4954861;29;20053;-78
2023/01/04 13:42:47;;;;;;;2.58;0.88;;;10.60;99.90;;;;;;4949533;29;20106;-79
2023/01/04 13:45:44;;;;;;;2.55;1.02;;;10.60;99.90;;;;;;4949815;29;20043;-80
2023/01/04 13:48:19;;;;;;;3.17;1.60;;;10.60;99.90;;;;;;4951677;28;20058;-78
2023/01/04 13:51:01;;;;;;;5.72;2.60;;;10.60;99.90;;;;;;4955228;29;20472;-78
2023/01/04 13:53:30;;;;;;;3.13;1.65;;;10.60;99.90;;;;;;4955666;28;20416;-79
2023/01/04 13:56:02;;;;;;;1.77;0.80;;;10.60;99.90;;;;;;4956662;28;20047;-79
2023/01/04 13:58:31;;;;;;;3.40;0.75;;;10.60;99.90;;;;;;4954104;28;20085;-78
2023/01/04 14:01:00;;;;;;;1.92;0.65;;;10.60;99.90;;;;;;4954910;29;20055;-78
2023/01/04 14:03:35;;;;;;;3.50;0.95;;;10.60;99.90;;;;;;4950607;29;20058;-79
2023/01/04 14:06:09;;;;;;;2.75;0.82;;;10.60;99.90;;;;;;4950432;28;20052;-79
2023/01/04 14:08:50;;;;;;;2.17;0.88;;;10.60;99.90;;;;;;4945689;29;20448;-76
2023/01/04 14:14:21;;;;;;;1.85;0.93;;;10.60;99.90;;;;;;4951182;29;20090;-77